Time;durP1;ratioP1;P1;durP2;ratioP2;P2;SDS_P1;SDS_P2;PMS_P1;PMS_P2;Temp;Humidity;BMP_temperature;BMP_pressure;BME280_temperature;BME280_humidity;BME280_pressure;Samples;Min_cycle;Max_cycle;Signal;HPM_P1;HPM_P2
2022/06/27 00:01:45;;;;;;;5.13;4.63;;;;;;;;;;5058834;28;20309;-76
2022/06/27 00:04:10;;;;;;;4.82;4.32;;;;;;;;;;5058783;28;20274;-76
2022/06/27 00:06:35;;;;;;;7.90;5.33;;;;;;;;;;5076821;28;20354;-78
2022/06/27 00:09:01;;;;;;;6.27;5.27;;;;;;;;;;5058608;28;20271;-76
2022/06/27 00:11:26;;;;;;;5.22;4.72;;;;;;;;;;5076149;28;20285;-77
2022/06/27 00:13:51;;;;;;;5.28;4.70;;;;;;;;;;5076714;28;20031;-76
2022/06/27 00:16:17;;;;;;;4.60;4.18;;;;;;;;;;5076796;28;20027;-75
2022/06/27 00:18:42;;;;;;;5.75;4.95;;;;;;;;;;5058729;28;20028;-75
2022/06/27 00:21:07;;;;;;;5.97;5.13;;;;;;;;;;5076678;28;20446;-76
2022/06/27 00:23:32;;;;;;;8.10;4.93;;;;;;;;;;5058327;28;20274;-74
2022/06/27 00:25:58;;;;;;;5.75;5.13;;;;;;;;;;5076471;28;20294;-76
2022/06/27 00:28:23;;;;;;;6.15;5.15;;;;;;;;;;5076444;28;20028;-76
2022/06/27 00:30:48;;;;;;;5.40;4.90;;;;;;;;;;5058122;28;20554;-76
2022/06/27 00:33:13;;;;;;;5.77;4.77;;;;;;;;;;5076195;28;20025;-74
2022/06/27 00:35:39;;;;;;;5.93;4.87;;;;;;;;;;5076329;28;20284;-75
2022/06/27 00:38:04;;;;;;;6.90;5.72;;;;;;;;;;5076100;28;20270;-76
2022/06/27 00:40:29;;;;;;;7.15;5.60;;;;;;;;;;5058177;28;20013;-74
2022/06/27 00:42:55;;;;;;;8.30;5.38;;;;;;;;;;5058145;28;20032;-75
2022/06/27 00:45:20;;;;;;;6.77;6.07;;;;;;;;;;5058217;28;20040;-75
2022/06/27 00:47:45;;;;;;;9.10;5.93;;;;;;;;;;5057997;28;20659;-75
2022/06/27 00:50:11;;;;;;;5.85;5.07;;;;;;;;;;5076020;28;20278;-78
2022/06/27 00:52:36;;;;;;;6.70;5.28;;;;;;;;;;5075754;28;20104;-75
2022/06/27 00:55:03;;;;;;;7.38;5.28;;;;;;;;;;5057758;28;20031;-74
2022/06/27 00:57:28;;;;;;;6.88;5.57;;;;;;;;;;5075978;28;20028;-75
2022/06/27 00:59:54;;;;;;;5.68;5.13;;;;;;;;;;5074990;28;20449;-76
2022/06/27 01:02:19;;;;;;;6.45;5.22;;;;;;;;;;5057710;28;20102;-76
2022/06/27 01:04:44;;;;;;;6.32;5.72;;;;;;;;;;5075745;28;20032;-74
2022/06/27 01:07:10;;;;;;;5.72;5.13;;;;;;;;;;5057429;28;20379;-74
2022/06/27 01:09:36;;;;;;;5.90;4.88;;;;;;;;;;5057577;28;20116;-76
2022/06/27 01:12:02;;;;;;;6.13;5.20;;;;;;;;;;5075822;28;20107;-76
2022/06/27 01:14:27;;;;;;;6.90;5.90;;;;;;;;;;5075545;28;20302;-75
2022/06/27 01:16:53;;;;;;;7.25;6.43;;;;;;;;;;5057485;28;20052;-75
2022/06/27 01:19:18;;;;;;;7.70;5.40;;;;;;;;;;5075408;28;20437;-76
2022/06/27 01:21:48;;;;;;;7.43;5.40;;;;;;;;;;5075165;28;20398;-74
2022/06/27 01:24:13;;;;;;;10.10;6.18;;;;;;;;;;5075324;28;20304;-77
2022/06/27 01:26:40;;;;;;;8.02;5.68;;;;;;;;;;5075539;28;20024;-76
2022/06/27 01:29:05;;;;;;;6.60;6.00;;;;;;;;;;5075154;28;20089;-75
2022/06/27 01:31:31;;;;;;;7.60;5.27;;;;;;;;;;5074812;28;20435;-76
2022/06/27 01:33:57;;;;;;;7.27;6.57;;;;;;;;;;5074946;28;20266;-74
2022/06/27 01:39:06;;;;;;;7.95;5.72;;;;;;;;;;5075214;28;20074;-75
2022/06/27 01:41:31;;;;;;;9.60;5.97;;;;;;;;;;5074922;28;20028;-77
2022/06/27 01:43:56;;;;;;;6.53;5.30;;;;;;;;;;5074905;28;20289;-74
2022/06/27 01:46:22;;;;;;;10.13;6.47;;;;;;;;;;5056783;28;20739;-76
2022/06/27 01:48:47;;;;;;;6.80;5.40;;;;;;;;;;5056687;28;20013;-75
2022/06/27 01:51:12;;;;;;;7.63;4.95;;;;;;;;;;5074726;28;20091;-76
2022/06/27 01:53:38;;;;;;;6.25;5.65;;;;;;;;;;5039968;28;20025;-76
2022/06/27 01:56:03;;;;;;;6.50;5.47;;;;;;;;;;5074725;28;20024;-75
2022/06/27 01:58:29;;;;;;;8.35;5.55;;;;;;;;;;5074664;28;20496;-75
2022/06/27 02:00:54;;;;;;;6.10;5.50;;;;;;;;;;5056537;28;20016;-75
2022/06/27 02:03:19;;;;;;;9.30;5.43;;;;;;;;;;5074298;28;20025;-75
2022/06/27 02:05:45;;;;;;;6.25;5.70;;;;;;;;;;5074128;28;20032;-77
2022/06/27 02:08:11;;;;;;;6.20;5.50;;;;;;;;;;5074410;28;20025;-76
2022/06/27 02:10:36;;;;;;;6.97;5.90;;;;;;;;;;5074221;28;20024;-75
2022/06/27 02:13:03;;;;;;;6.30;5.70;;;;;;;;;;5074507;28;20028;-75
2022/06/27 02:15:29;;;;;;;7.00;5.60;;;;;;;;;;5074399;28;20027;-75
2022/06/27 02:17:54;;;;;;;8.32;5.70;;;;;;;;;;5056246;28;20077;-77
2022/06/27 02:20:20;;;;;;;6.27;5.63;;;;;;;;;;5074088;28;20032;-76
2022/06/27 02:22:45;;;;;;;6.70;6.10;;;;;;;;;;5074293;28;20282;-75
2022/06/27 02:25:10;;;;;;;6.90;6.17;;;;;;;;;;5056093;28;20039;-76
2022/06/27 02:27:36;;;;;;;6.85;5.63;;;;;;;;;;5055814;28;20700;-74
2022/06/27 02:30:02;;;;;;;6.93;5.78;;;;;;;;;;5056039;28;20029;-74
2022/06/27 02:32:28;;;;;;;5.75;5.25;;;;;;;;;;5073717;28;20131;-75
2022/06/27 02:34:55;;;;;;;7.68;5.65;;;;;;;;;;5055803;28;20055;-76
2022/06/27 02:37:20;;;;;;;7.40;5.20;;;;;;;;;;5073789;28;20024;-75
2022/06/27 02:39:47;;;;;;;7.00;5.47;;;;;;;;;;5073668;28;20081;-75
2022/06/27 02:42:13;;;;;;;5.57;4.97;;;;;;;;;;5073720;28;20024;-76
2022/06/27 02:44:42;;;;;;;8.93;5.25;;;;;;;;;;5039201;28;20036;-75
2022/06/27 02:47:07;;;;;;;7.65;5.68;;;;;;;;;;5073663;28;20032;-77
2022/06/27 02:49:33;;;;;;;8.15;5.60;;;;;;;;;;5073605;28;20467;-77
2022/06/27 02:52:17;;;;;;;10.55;5.90;;;;;;;;;;5073413;28;20017;-75
2022/06/27 02:54:47;;;;;;;7.05;5.70;;;;;;;;;;5073485;28;20024;-74
2022/06/27 02:57:16;;;;;;;5.95;5.03;;;;;;;;;;5073638;28;20107;-76
2022/06/27 02:59:41;;;;;;;5.90;5.40;;;;;;;;;;5073373;28;20082;-76
2022/06/27 03:02:09;;;;;;;6.50;5.90;;;;;;;;;;5055470;28;20028;-75
2022/06/27 03:04:34;;;;;;;8.00;5.97;;;;;;;;;;5055438;28;20021;-76
2022/06/27 03:06:59;;;;;;;7.15;5.50;;;;;;;;;;5073371;28;20461;-74
2022/06/27 03:09:24;;;;;;;5.67;5.07;;;;;;;;;;5073471;28;20081;-74
2022/06/27 03:11:50;;;;;;;8.93;5.97;;;;;;;;;;5073335;28;20636;-74
2022/06/27 03:14:15;;;;;;;10.70;5.90;;;;;;;;;;5055271;28;20286;-76
2022/06/27 03:16:40;;;;;;;6.40;5.68;;;;;;;;;;5073233;28;20454;-76
2022/06/27 03:19:06;;;;;;;7.50;6.05;;;;;;;;;;5073213;28;20021;-75
2022/06/27 03:21:31;;;;;;;8.70;5.88;;;;;;;;;;5072668;28;20032;-75
2022/06/27 03:23:57;;;;;;;7.32;5.85;;;;;;;;;;5073245;28;20021;-74
2022/06/27 03:26:22;;;;;;;7.73;5.37;;;;;;;;;;5073449;28;20353;-75
2022/06/27 03:28:47;;;;;;;7.13;5.68;;;;;;;;;;5072949;28;20313;-75
2022/06/27 03:31:13;;;;;;;7.38;5.50;;;;;;;;;;5072992;28;20527;-75
2022/06/27 03:33:39;;;;;;;6.78;5.45;;;;;;;;;;5073279;28;20074;-76
2022/06/27 03:36:04;;;;;;;6.85;6.00;;;;;;;;;;5073261;28;20093;-75
2022/06/27 03:38:29;;;;;;;6.95;5.43;;;;;;;;;;5055392;28;20103;-75
2022/06/27 03:40:55;;;;;;;7.18;5.47;;;;;;;;;;5072935;28;20029;-76
2022/06/27 03:43:20;;;;;;;7.57;5.85;;;;;;;;;;5066468;28;20036;-75
2022/06/27 03:45:46;;;;;;;7.37;5.70;;;;;;;;;;5072816;28;20085;-74
2022/06/27 03:49:59;;;;;;;7.70;6.22;;;;;;;;;;5073596;28;20269;-76
2022/06/27 03:50:56;;;;;;;7.43;5.70;;;;;;;;;;5072714;28;20097;-75
2022/06/27 03:53:22;;;;;;;6.60;5.73;;;;;;;;;;5053700;28;20056;-74
2022/06/27 03:55:47;;;;;;;6.70;5.30;;;;;;;;;;5034849;28;20275;-76
2022/06/27 03:58:12;;;;;;;6.07;5.57;;;;;;;;;;5052501;28;20667;-75
2022/06/27 04:00:38;;;;;;;8.10;5.37;;;;;;;;;;5053002;28;20310;-76
2022/06/27 04:03:03;;;;;;;11.05;4.88;;;;;;;;;;5053000;28;20278;-76
2022/06/27 04:05:28;;;;;;;5.78;5.18;;;;;;;;;;5034904;28;20530;-74
2022/06/27 04:07:53;;;;;;;8.80;5.10;;;;;;;;;;5034810;28;20601;-75
2022/06/27 04:10:19;;;;;;;5.40;4.90;;;;;;;;;;5052725;28;20282;-77
2022/06/27 04:12:44;;;;;;;6.70;5.40;;;;;;;;;;5034547;28;20276;-74
2022/06/27 04:15:10;;;;;;;7.93;5.03;;;;;;;;;;5052514;28;20833;-75
2022/06/27 04:17:35;;;;;;;6.05;5.45;;;;;;;;;;5053346;28;20096;-75
2022/06/27 04:20:00;;;;;;;6.03;5.32;;;;;;;;;;5034742;28;20082;-74
2022/06/27 04:22:28;;;;;;;8.95;5.88;;;;;;;;;;5052594;28;20024;-76
2022/06/27 04:24:53;;;;;;;7.43;5.70;;;;;;;;;;5034723;28;20461;-76
2022/06/27 04:27:20;;;;;;;7.22;4.93;;;;;;;;;;5052363;28;20112;-75
2022/06/27 04:29:45;;;;;;;5.22;4.72;;;;;;;;;;5034480;28;20425;-74
2022/06/27 04:32:11;;;;;;;15.18;6.50;;;;;;;;;;5052326;28;20540;-74
2022/06/27 04:34:36;;;;;;;10.57;6.68;;;;;;;;;;5037307;28;20373;-76
2022/06/27 04:37:03;;;;;;;9.93;8.63;;;;;;;;;;5056064;28;20017;-77
2022/06/27 04:39:28;;;;;;;6.25;4.97;;;;;;;;;;5056259;28;20031;-75
2022/06/27 04:41:54;;;;;;;9.07;6.00;;;;;;;;;;5037927;28;20469;-75
2022/06/27 04:44:20;;;;;;;5.88;5.13;;;;;;;;;;5038148;28;20025;-75
2022/06/27 04:46:48;;;;;;;8.27;5.47;;;;;;;;;;5055899;28;20025;-75
2022/06/27 04:49:15;;;;;;;5.53;4.95;;;;;;;;;;5055911;28;20056;-74
2022/06/27 04:51:41;;;;;;;6.18;4.97;;;;;;;;;;5055648;28;20021;-75
2022/06/27 04:54:07;;;;;;;8.13;5.57;;;;;;;;;;5055152;28;20021;-75
2022/06/27 04:56:48;;;;;;;7.28;5.50;;;;;;;;;;5051832;28;20409;-76
2022/06/27 04:59:14;;;;;;;;;;;;;;;;;;5052443;28;20051;-76
2022/06/27 05:01:39;;;;;;;7.10;5.30;;;;;;;;;;5054771;28;19913;-75
2022/06/27 05:04:05;;;;;;;7.93;4.97;;;;;;;;;;5055771;28;20275;-76
2022/06/27 05:06:31;;;;;;;8.55;4.95;;;;;;;;;;5036501;28;20111;-75
2022/06/27 05:08:58;;;;;;;6.50;4.90;;;;;;;;;;5055090;28;20017;-78
2022/06/27 05:11:24;;;;;;;8.10;5.65;;;;;;;;;;5055250;28;20355;-78
2022/06/27 05:13:50;;;;;;;7.25;5.70;;;;;;;;;;5055338;28;20091;-75
2022/06/27 05:16:16;;;;;;;5.75;5.03;;;;;;;;;;5055526;28;20029;-75
2022/06/27 05:18:42;;;;;;;8.00;5.65;;;;;;;;;;5037981;28;20087;-83
2022/06/27 05:21:08;;;;;;;9.02;5.05;;;;;;;;;;5054266;28;20029;-75
2022/06/27 05:23:37;;;;;;;6.55;4.68;;;;;;;;;;5055627;28;20088;-76
2022/06/27 05:26:04;;;;;;;7.78;5.28;;;;;;;;;;5052729;28;20032;-76
2022/06/27 05:28:30;;;;;;;8.18;5.70;;;;;;;;;;5054343;28;20025;-76
2022/06/27 05:30:55;;;;;;;7.85;5.00;;;;;;;;;;5052381;28;20533;-76
2022/06/27 05:33:25;;;;;;;5.70;4.97;;;;;;;;;;5054068;28;20025;-76
2022/06/27 05:35:51;;;;;;;7.85;5.05;;;;;;;;;;5035639;28;20021;-77
2022/06/27 05:38:16;;;;;;;7.75;4.65;;;;;;;;;;5035075;28;20139;-76
2022/06/27 05:40:42;;;;;;;9.93;5.65;;;;;;;;;;5053604;28;20025;-76
2022/06/27 05:43:07;;;;;;;12.45;4.72;;;;;;;;;;5054202;28;20498;-76
2022/06/27 05:45:33;;;;;;;6.90;5.13;;;;;;;;;;5054149;28;20028;-75
2022/06/27 05:48:02;;;;;;;5.95;4.85;;;;;;;;;;5054559;28;20445;-76
2022/06/27 05:50:28;;;;;;;7.40;4.95;;;;;;;;;;5034553;28;20025;-73
2022/06/27 05:52:56;;;;;;;6.25;4.95;;;;;;;;;;5053632;28;20466;-74
2022/06/27 05:55:22;;;;;;;4.70;4.10;;;;;;;;;;5035166;28;20448;-75
2022/06/27 05:57:48;;;;;;;5.68;4.63;;;;;;;;;;5053796;28;20393;-76
2022/06/27 06:00:15;;;;;;;5.90;4.10;;;;;;;;;;5034816;28;20051;-75
2022/06/27 06:02:41;;;;;;;5.95;4.30;;;;;;;;;;5053574;28;20111;-76
2022/06/27 06:05:11;;;;;;;7.97;4.40;;;;;;;;;;5053529;28;20123;-76
2022/06/27 06:07:37;;;;;;;5.13;3.80;;;;;;;;;;5053504;28;20025;-77
2022/06/27 06:10:03;;;;;;;8.43;5.00;;;;;;;;;;5053614;28;20036;-76
2022/06/27 06:12:29;;;;;;;4.95;4.30;;;;;;;;;;5053949;28;20100;-76
2022/06/27 06:14:55;;;;;;;8.60;4.60;;;;;;;;;;5053678;28;20462;-76
2022/06/27 06:17:21;;;;;;;4.68;3.53;;;;;;;;;;5053823;28;20267;-77
2022/06/27 06:19:47;;;;;;;5.38;3.60;;;;;;;;;;5035847;28;20473;-75
2022/06/27 06:22:12;;;;;;;6.27;3.47;;;;;;;;;;5053926;28;20032;-76
2022/06/27 06:24:37;;;;;;;3.83;3.40;;;;;;;;;;5053830;28;20025;-75
2022/06/27 06:27:03;;;;;;;6.00;4.17;;;;;;;;;;5053656;28;20027;-75
2022/06/27 06:29:29;;;;;;;7.40;3.38;;;;;;;;;;5053477;28;20032;-76
2022/06/27 06:31:54;;;;;;;7.93;4.60;;;;;;;;;;5053301;28;20044;-75
2022/06/27 06:34:19;;;;;;;6.90;4.50;;;;;;;;;;5053240;28;20377;-75
2022/06/27 06:36:45;;;;;;;10.17;3.93;;;;;;;;;;5053376;28;20047;-75
2022/06/27 06:39:11;;;;;;;4.47;3.60;;;;;;;;;;5053203;28;20027;-76
2022/06/27 06:41:37;;;;;;;7.30;3.63;;;;;;;;;;5053261;28;20067;-75
2022/06/27 06:44:05;;;;;;;10.25;4.47;;;;;;;;;;5053793;28;20017;-75
2022/06/27 06:46:31;;;;;;;8.85;4.15;;;;;;;;;;5053337;28;20453;-76
2022/06/27 06:49:04;;;;;;;5.07;4.10;;;;;;;;;;5053722;28;20036;-76
2022/06/27 06:51:31;;;;;;;9.32;4.20;;;;;;;;;;5036029;28;20106;-74
2022/06/27 06:53:58;;;;;;;4.18;3.40;;;;;;;;;;5035312;28;20041;-76
2022/06/27 06:56:24;;;;;;;5.90;4.18;;;;;;;;;;5034626;28;20025;-76
2022/06/27 06:58:50;;;;;;;3.78;3.45;;;;;;;;;;5053063;28;20028;-77
2022/06/27 07:01:15;;;;;;;4.63;2.83;;;;;;;;;;5053013;28;20053;-77
2022/06/27 07:03:40;;;;;;;4.60;3.67;;;;;;;;;;5053157;28;20061;-75
2022/06/27 07:06:06;;;;;;;5.67;3.80;;;;;;;;;;5053139;28;20031;-76
2022/06/27 07:08:33;;;;;;;3.60;3.22;;;;;;;;;;5053194;28;20017;-76
2022/06/27 07:10:59;;;;;;;3.78;3.20;;;;;;;;;;5053103;28;20025;-76
2022/06/27 07:13:25;;;;;;;4.40;3.88;;;;;;;;;;5034845;28;20021;-76
2022/06/27 07:15:51;;;;;;;7.25;3.35;;;;;;;;;;5052776;28;20040;-75
2022/06/27 07:18:17;;;;;;;9.90;3.72;;;;;;;;;;5052619;28;20128;-77
2022/06/27 07:20:43;;;;;;;4.15;3.38;;;;;;;;;;5052933;28;20017;-75
2022/06/27 07:23:09;;;;;;;3.65;2.97;;;;;;;;;;5034798;28;20021;-77
2022/06/27 07:25:35;;;;;;;5.20;3.70;;;;;;;;;;5052749;28;20417;-75
2022/06/27 07:28:00;;;;;;;4.13;3.50;;;;;;;;;;5052649;28;20028;-76
2022/06/27 07:30:26;;;;;;;4.83;3.93;;;;;;;;;;5052557;28;20036;-76
2022/06/27 07:32:51;;;;;;;3.25;2.97;;;;;;;;;;5052564;28;20033;-78
2022/06/27 07:35:17;;;;;;;3.67;3.10;;;;;;;;;;5034990;28;20354;-76
2022/06/27 07:37:49;;;;;;;4.18;2.97;;;;;;;;;;5053453;28;20272;-76
2022/06/27 07:40:18;;;;;;;3.92;2.80;;;;;;;;;;5053146;28;20584;-76
2022/06/27 07:42:44;;;;;;;3.42;2.95;;;;;;;;;;5052875;28;20021;-77
2022/06/27 07:45:12;;;;;;;5.00;3.00;;;;;;;;;;5052570;28;20032;-76
2022/06/27 07:47:38;;;;;;;7.63;3.40;;;;;;;;;;5034766;28;20388;-77
2022/06/27 07:50:03;;;;;;;4.03;3.28;;;;;;;;;;5034288;28;20029;-76
2022/06/27 07:52:28;;;;;;;8.00;4.32;;;;;;;;;;5044969;28;20037;-76
2022/06/27 07:54:55;;;;;;;5.50;3.40;;;;;;;;;;5053030;28;20025;-76
2022/06/27 07:57:21;;;;;;;5.10;3.28;;;;;;;;;;5052064;28;20825;-75
2022/06/27 07:59:48;;;;;;;4.47;3.05;;;;;;;;;;5052364;28;20025;-76
2022/06/27 08:02:13;;;;;;;5.60;2.72;;;;;;;;;;5052783;28;20020;-75
2022/06/27 08:04:41;;;;;;;5.13;4.63;;;;;;;;;;5052245;28;20028;-75
2022/06/27 08:07:06;;;;;;;5.40;3.28;;;;;;;;;;5034201;28;20021;-76
2022/06/27 08:09:31;;;;;;;6.63;3.85;;;;;;;;;;5056804;28;20032;-75
2022/06/27 08:11:57;;;;;;;4.50;3.23;;;;;;;;;;5056722;28;20028;-76
2022/06/27 08:14:22;;;;;;;4.10;2.80;;;;;;;;;;5055285;28;20290;-76
2022/06/27 08:16:51;;;;;;;4.03;3.05;;;;;;;;;;5063339;28;20373;-76
2022/06/27 08:19:16;;;;;;;4.15;3.00;;;;;;;;;;5055945;28;20017;-76
2022/06/27 08:21:43;;;;;;;5.57;2.95;;;;;;;;;;5038075;28;20028;-76
2022/06/27 08:24:11;;;;;;;7.22;3.05;;;;;;;;;;5038073;28;20021;-74
2022/06/27 08:26:37;;;;;;;2.80;2.50;;;;;;;;;;5055787;28;20471;-77
2022/06/27 08:29:03;;;;;;;4.50;2.95;;;;;;;;;;5070975;28;20021;-77
2022/06/27 08:31:32;;;;;;;6.43;3.10;;;;;;;;;;5054419;28;20496;-75
2022/06/27 08:34:00;;;;;;;4.82;3.00;;;;;;;;;;5054461;28;20078;-76
2022/06/27 08:36:27;;;;;;;5.43;3.22;;;;;;;;;;5036025;28;20103;-76
2022/06/27 08:38:53;;;;;;;4.53;2.55;;;;;;;;;;5035859;28;20079;-76
2022/06/27 08:41:23;;;;;;;3.08;2.60;;;;;;;;;;5033848;28;20070;-76
2022/06/27 08:43:49;;;;;;;4.60;2.77;;;;;;;;;;5037797;28;20028;-76
2022/06/27 08:46:15;;;;;;;6.47;3.05;;;;;;;;;;5055058;28;20095;-76
2022/06/27 08:48:41;;;;;;;4.75;3.00;;;;;;;;;;5055772;28;20373;-76
2022/06/27 08:51:07;;;;;;;6.43;2.85;;;;;;;;;;5055541;28;20033;-76
2022/06/27 08:53:33;;;;;;;6.00;2.97;;;;;;;;;;5037596;28;20025;-76
2022/06/27 08:55:59;;;;;;;4.43;2.72;;;;;;;;;;5055303;28;20066;-76
2022/06/27 08:58:27;;;;;;;3.15;2.85;;;;;;;;;;5055699;28;20343;-76
2022/06/27 09:00:53;;;;;;;4.57;2.78;;;;;;;;;;5055385;28;20151;-76
2022/06/27 09:03:20;;;;;;;10.35;2.92;;;;;;;;;;5055356;28;20432;-76
2022/06/27 09:06:02;;;;;;;8.10;3.03;;;;;;;;;;5056161;28;20025;-76
2022/06/27 09:08:31;;;;;;;5.80;3.05;;;;;;;;;;5055050;28;20028;-76
2022/06/27 09:10:57;;;;;;;6.70;3.60;;;;;;;;;;5055361;28;20025;-76
2022/06/27 09:13:23;;;;;;;3.05;2.53;;;;;;;;;;5055497;28;20032;-77
2022/06/27 09:15:52;;;;;;;3.40;3.10;;;;;;;;;;5054859;28;20044;-76
2022/06/27 09:18:22;;;;;;;3.10;2.33;;;;;;;;;;5054939;28;20057;-75
2022/06/27 09:20:55;;;;;;;3.42;3.13;;;;;;;;;;5054161;28;20021;-77
2022/06/27 09:23:31;;;;;;;4.97;2.92;;;;;;;;;;5055015;28;20020;-76
2022/06/27 09:25:58;;;;;;;4.43;3.28;;;;;;;;;;5055056;28;20020;-75
2022/06/27 09:28:35;;;;;;;3.13;2.47;;;;;;;;;;5054820;28;20051;-76
2022/06/27 09:31:00;;;;;;;5.38;3.28;;;;;;;;;;5054524;28;20057;-77
2022/06/27 09:33:26;;;;;;;6.23;3.20;;;;;;;;;;5036737;28;20025;-75
2022/06/27 09:35:51;;;;;;;2.90;2.60;;;;;;;;;;5037054;28;20017;-75
2022/06/27 09:38:17;;;;;;;4.32;2.80;;;;;;;;;;5054795;28;20031;-76
2022/06/27 09:40:44;;;;;;;2.90;2.42;;;;;;;;;;5054801;28;20021;-77
2022/06/27 09:43:10;;;;;;;4.40;3.38;;;;;;;;;;5054188;28;20039;-75
2022/06/27 09:45:37;;;;;;;11.32;4.15;;;;;;;;;;5060908;28;20017;-76
2022/06/27 09:48:04;;;;;;;3.53;3.17;;;;;;;;;;5060746;28;20021;-78
2022/06/27 09:50:34;;;;;;;3.78;2.80;;;;;;;;;;5056578;28;20051;-78
2022/06/27 09:53:00;;;;;;;2.85;2.40;;;;;;;;;;5035845;28;20083;-78
2022/06/27 09:55:26;;;;;;;3.10;2.50;;;;;;;;;;5026256;28;20454;-75
2022/06/27 09:57:53;;;;;;;3.95;2.88;;;;;;;;;;5050382;28;20470;-76
2022/06/27 10:00:20;;;;;;;6.07;3.05;;;;;;;;;;5051588;28;20025;-76
2022/06/27 10:02:46;;;;;;;4.20;2.60;;;;;;;;;;5053595;28;20063;-77
2022/06/27 10:05:14;;;;;;;4.57;2.92;;;;;;;;;;5038137;28;20021;-77
2022/06/27 10:07:42;;;;;;;4.60;2.80;;;;;;;;;;5036710;28;20381;-76
2022/06/27 10:10:08;;;;;;;3.67;2.70;;;;;;;;;;5049366;28;20147;-76
2022/06/27 10:12:36;;;;;;;3.00;2.60;;;;;;;;;;5042928;28;20111;-77
2022/06/27 10:15:10;;;;;;;8.00;3.05;;;;;;;;;;5042117;28;20025;-73
2022/06/27 10:17:38;;;;;;;3.75;3.03;;;;;;;;;;5050748;28;20374;-77
2022/06/27 10:20:07;;;;;;;2.97;2.67;;;;;;;;;;5039179;28;20017;-80
2022/06/27 10:22:33;;;;;;;2.97;2.77;;;;;;;;;;5055925;28;20464;-75
2022/06/27 10:25:17;;;;;;;5.03;2.70;;;;;;;;;;5042327;28;20025;-81
2022/06/27 10:27:42;;;;;;;4.45;3.17;;;;;;;;;;5050693;28;20017;-80
2022/06/27 10:30:26;;;;;;;4.03;3.17;;;;;;;;;;5021935;28;20017;-79
2022/06/27 10:32:52;;;;;;;8.30;3.42;;;;;;;;;;5042921;28;20548;-77
2022/06/27 10:35:17;;;;;;;5.55;3.03;;;;;;;;;;5048578;28;20096;-81
2022/06/27 10:37:43;;;;;;;3.72;3.33;;;;;;;;;;5068976;28;20066;-77
2022/06/27 10:40:35;;;;;;;6.32;3.63;;;;;;;;;;5035513;28;20017;-80
2022/06/27 10:43:00;;;;;;;5.43;4.30;;;;;;;;;;5041578;28;20028;-80
2022/06/27 10:45:29;;;;;;;3.25;2.95;;;;;;;;;;5051748;28;20025;-79
2022/06/27 10:47:55;;;;;;;8.98;3.42;;;;;;;;;;5035628;28;20402;-79
2022/06/27 10:50:22;;;;;;;4.95;3.33;;;;;;;;;;5046904;28;20017;-80
2022/06/27 10:52:48;;;;;;;4.57;3.20;;;;;;;;;;5043966;28;20087;-83
2022/06/27 10:55:26;;;;;;;4.78;2.80;;;;;;;;;;5021769;28;20022;-79
2022/06/27 10:57:53;;;;;;;3.80;3.20;;;;;;;;;;5049926;28;20017;-80
2022/06/27 11:00:37;;;;;;;4.70;3.55;;;;;;;;;;5022194;28;20036;-79
2022/06/27 11:03:04;;;;;;;8.90;3.63;;;;;;;;;;5040869;28;20028;-78
2022/06/27 11:05:29;;;;;;;8.23;4.10;;;;;;;;;;5031462;28;20025;-77
2022/06/27 11:07:55;;;;;;;9.05;4.05;;;;;;;;;;5036982;28;20028;-77
2022/06/27 11:10:21;;;;;;;3.72;3.38;;;;;;;;;;5048792;28;20366;-77
2022/06/27 11:12:46;;;;;;;3.63;3.33;;;;;;;;;;5042863;28;20396;-77
2022/06/27 11:15:12;;;;;;;8.32;3.42;;;;;;;;;;5046938;28;20017;-77
2022/06/27 11:17:41;;;;;;;3.95;3.17;;;;;;;;;;5037188;28;20470;-77
2022/06/27 11:20:07;;;;;;;6.68;3.80;;;;;;;;;;5030703;28;20010;-73
2022/06/27 11:22:32;;;;;;;4.72;3.75;;;;;;;;;;5041502;28;20027;-74
2022/06/27 11:24:57;;;;;;;4.87;3.37;;;;;;;;;;5041255;28;20440;-79
2022/06/27 11:27:23;;;;;;;6.13;3.30;;;;;;;;;;5048485;28;20346;-79
2022/06/27 11:32:35;;;;;;;3.90;3.45;;;;;;;;;;5045203;28;20452;-77
2022/06/27 11:35:01;;;;;;;8.32;3.53;;;;;;;;;;5030291;28;20021;-79
2022/06/27 11:37:28;;;;;;;4.07;3.65;;;;;;;;;;5050006;28;20063;-76
2022/06/27 11:40:01;;;;;;;6.75;3.58;;;;;;;;;;5053541;28;20063;-78
2022/06/27 11:42:30;;;;;;;3.60;3.30;;;;;;;;;;5046681;28;20445;-79
2022/06/27 11:45:05;;;;;;;6.20;3.58;;;;;;;;;;5029124;28;20051;-78
2022/06/27 11:47:32;;;;;;;6.00;3.55;;;;;;;;;;5032136;28;20048;-77
2022/06/27 11:50:06;;;;;;;4.10;3.80;;;;;;;;;;5053530;28;20418;-77
2022/06/27 11:52:38;;;;;;;4.55;3.80;;;;;;;;;;5048555;28;20525;-79
2022/06/27 11:55:08;;;;;;;6.03;3.58;;;;;;;;;;5031554;28;20013;-78
2022/06/27 11:57:33;;;;;;;4.57;3.15;;;;;;;;;;5044008;28;20388;-82
2022/06/27 12:00:00;;;;;;;3.00;2.75;;;;;;;;;;5056541;28;20108;-80
2022/06/27 12:02:30;;;;;;;7.85;3.83;;;;;;;;;;5061804;28;20166;-81
2022/06/27 12:05:05;;;;;;;3.45;2.70;;;;;;;;;;5054464;28;20037;-79
2022/06/27 12:07:31;;;;;;;5.40;3.50;;;;;;;;;;5064547;28;20506;-80
2022/06/27 12:09:56;;;;;;;6.28;3.25;;;;;;;;;;5054085;28;20104;-79
2022/06/27 12:12:26;;;;;;;3.15;2.95;;;;;;;;;;5058098;28;20102;-80
2022/06/27 12:14:51;;;;;;;3.45;2.67;;;;;;;;;;5039417;28;20020;-80
2022/06/27 12:17:17;;;;;;;2.78;2.58;;;;;;;;;;5063680;28;20385;-78
2022/06/27 12:19:43;;;;;;;3.88;2.42;;;;;;;;;;5018838;28;20059;-79
2022/06/27 12:22:09;;;;;;;2.65;2.35;;;;;;;;;;5032470;28;20023;-79
2022/06/27 12:24:34;;;;;;;2.85;2.60;;;;;;;;;;5056331;28;20017;-77
2022/06/27 12:26:59;;;;;;;2.35;2.15;;;;;;;;;;5055175;28;20024;-77
2022/06/27 12:29:25;;;;;;;3.80;2.23;;;;;;;;;;5054349;28;20108;-78
2022/06/27 12:31:50;;;;;;;2.70;2.50;;;;;;;;;;5053637;28;20318;-78
2022/06/27 12:34:15;;;;;;;2.33;2.17;;;;;;;;;;5055773;28;20267;-78
2022/06/27 12:36:41;;;;;;;2.85;2.65;;;;;;;;;;5070551;28;20767;-78
2022/06/27 12:39:07;;;;;;;3.30;2.97;;;;;;;;;;5071228;28;20386;-78
2022/06/27 12:41:32;;;;;;;4.03;2.85;;;;;;;;;;5054641;28;20025;-78
2022/06/27 12:43:58;;;;;;;2.67;2.22;;;;;;;;;;5054803;28;20433;-78
2022/06/27 12:46:23;;;;;;;3.33;2.72;;;;;;;;;;5054807;28;20494;-78
2022/06/27 12:48:49;;;;;;;2.28;2.17;;;;;;;;;;5056075;28;20024;-79
2022/06/27 12:51:14;;;;;;;2.25;2.10;;;;;;;;;;5054658;28;20045;-78
2022/06/27 12:53:40;;;;;;;7.22;2.78;;;;;;;;;;5055403;28;20147;-78
2022/06/27 12:56:05;;;;;;;3.80;2.05;;;;;;;;;;5055157;28;20373;-78
2022/06/27 12:58:31;;;;;;;6.43;2.50;;;;;;;;;;5055842;28;20013;-79
2022/06/27 13:00:57;;;;;;;3.65;2.58;;;;;;;;;;5055788;28;20454;-77
2022/06/27 13:03:22;;;;;;;2.67;1.92;;;;;;;;;;5055858;28;20021;-78
2022/06/27 13:05:47;;;;;;;2.95;2.17;;;;;;;;;;5055814;28;20377;-79
2022/06/27 13:08:13;;;;;;;3.08;2.20;;;;;;;;;;5054371;28;20025;-79
2022/06/27 13:10:38;;;;;;;2.40;2.20;;;;;;;;;;5056115;28;20516;-79
2022/06/27 13:13:04;;;;;;;3.50;2.20;;;;;;;;;;5055917;28;20035;-78
2022/06/27 13:15:31;;;;;;;2.45;2.25;;;;;;;;;;5055594;28;20825;-78
2022/06/27 13:17:56;;;;;;;6.13;2.40;;;;;;;;;;5055547;28;20012;-78
2022/06/27 13:20:22;;;;;;;4.13;2.43;;;;;;;;;;5054498;28;20044;-79
2022/06/27 13:22:47;;;;;;;4.05;2.40;;;;;;;;;;5055380;28;20747;-79
2022/06/27 13:25:13;;;;;;;3.07;1.83;;;;;;;;;;5055452;28;20381;-79
2022/06/27 13:27:38;;;;;;;2.95;2.30;;;;;;;;;;5053984;28;20021;-78
2022/06/27 13:30:04;;;;;;;2.80;2.60;;;;;;;;;;5055389;28;20021;-79
2022/06/27 13:32:30;;;;;;;3.03;2.33;;;;;;;;;;5074370;28;20554;-78
2022/06/27 13:34:55;;;;;;;3.00;2.42;;;;;;;;;;5075238;28;20008;-78
2022/06/27 13:37:20;;;;;;;3.60;1.93;;;;;;;;;;5074279;28;20019;-81
2022/06/27 13:39:46;;;;;;;2.00;1.90;;;;;;;;;;5070243;28;20049;-78
2022/06/27 13:42:11;;;;;;;2.50;1.90;;;;;;;;;;5064997;28;20020;-78
2022/06/27 13:44:36;;;;;;;3.40;2.20;;;;;;;;;;5055367;28;20833;-79
2022/06/27 13:47:02;;;;;;;2.40;2.10;;;;;;;;;;5055169;28;20100;-78
2022/06/27 13:49:27;;;;;;;3.35;2.20;;;;;;;;;;5066868;28;20473;-75
2022/06/27 13:51:52;;;;;;;2.35;2.15;;;;;;;;;;5054634;28;20017;-78
2022/06/27 13:54:18;;;;;;;2.67;2.10;;;;;;;;;;5054887;28;20017;-80
2022/06/27 13:56:43;;;;;;;2.23;2.00;;;;;;;;;;5055065;28;20262;-78
2022/06/27 13:59:10;;;;;;;3.50;2.28;;;;;;;;;;5054696;28;20681;-77
2022/06/27 14:01:36;;;;;;;4.05;2.97;;;;;;;;;;5054766;28;20092;-79
2022/06/27 14:04:01;;;;;;;4.30;2.47;;;;;;;;;;5054632;28;20089;-79
2022/06/27 14:09:10;;;;;;;2.97;2.60;;;;;;;;;;5054758;28;20059;-78
2022/06/27 14:11:36;;;;;;;4.82;2.42;;;;;;;;;;5054614;28;20119;-76
2022/06/27 14:14:01;;;;;;;2.35;2.15;;;;;;;;;;5054410;28;20021;-75
2022/06/27 14:16:27;;;;;;;2.08;1.98;;;;;;;;;;5054960;28;20016;-78
2022/06/27 14:18:52;;;;;;;1.60;1.50;;;;;;;;;;5054347;28;20367;-77
2022/06/27 14:21:17;;;;;;;3.90;2.27;;;;;;;;;;5054403;28;20472;-76
2022/06/27 14:23:43;;;;;;;1.97;1.43;;;;;;;;;;5054253;28;20277;-77
2022/06/27 14:26:08;;;;;;;2.53;1.50;;;;;;;;;;5054200;28;20298;-76
2022/06/27 14:28:33;;;;;;;3.43;2.60;;;;;;;;;;5054291;28;20032;-78
2022/06/27 14:30:58;;;;;;;5.00;2.00;;;;;;;;;;5029279;28;20493;-76
2022/06/27 14:33:24;;;;;;;1.60;1.50;;;;;;;;;;5034089;28;20025;-76
2022/06/27 14:35:49;;;;;;;2.15;1.55;;;;;;;;;;5034386;28;20027;-77
2022/06/27 14:38:15;;;;;;;2.75;2.28;;;;;;;;;;5034320;28;20017;-76
2022/06/27 14:40:41;;;;;;;4.07;2.00;;;;;;;;;;5034135;28;20056;-77
2022/06/27 14:43:06;;;;;;;3.55;1.85;;;;;;;;;;5034141;28;20028;-82
2022/06/27 14:45:32;;;;;;;2.20;1.80;;;;;;;;;;5034480;28;20057;-78
2022/06/27 14:47:57;;;;;;;2.47;1.73;;;;;;;;;;5034518;28;20026;-77